CheckWX is a tool to help pilots better visualize weather data.  It is not intended as a substitute for an official pre-flight weather briefing.

22:25:47 UTC

AYNZ METAR
Lae Nadzab Airport
Nadzab, Papua New Guinea
Current

26 mins ago

AYNZ 252200Z VRB03KT 9999 FEW005 OVC140 25/22 Q1013
Observed
Mar-25 @ 22:00 UTC
Wind
  • Variable at 3 KTS
Visibility
10,000+ meters
Flight Rules
VFR
Cloud Levels
  • Few at 500' AGL
  • Overcast at 14,000' AGL
Temperature
25°C / 77°F
Dewpoint
22°C / 72°F
Humidity
83%
Altimeter
29.91" Hg
Pressure
1012.92 hPa
Previous

1 hour ago

AYNZ 252100Z VRB03KT 9999 FEW010 OVC140 24/22 Q1013
Observed
Mar-25 @ 21:00 UTC
Wind
  • Variable at 3 KTS
Visibility
10,000+ meters
Flight Rules
VFR
Cloud Levels
  • Few at 1,000' AGL
  • Overcast at 14,000' AGL
Temperature
24°C / 75°F
Dewpoint
22°C / 72°F
Humidity
89%
Altimeter
29.91" Hg
Pressure
1012.92 hPa
Previous

2 hours ago

AYNZ 252000Z VRB03KT 9999 FEW010 SCT040 24/22 Q1012
Observed
Mar-25 @ 20:00 UTC
Wind
  • Variable at 3 KTS
Visibility
10,000+ meters
Flight Rules
VFR
Cloud Levels
  • Few at 1,000' AGL
  • Scattered at 4,000' AGL
Temperature
24°C / 75°F
Dewpoint
22°C / 72°F
Humidity
89%
Altimeter
29.88" Hg
Pressure
1011.92 hPa